sensor_id;sensor_type;location;lat;lon;timestamp;temperature;humidity
68922;DHT22;55959;51.244;5.724;2023-05-10T00:00:09;17.30;77.90
68922;DHT22;55959;51.244;5.724;2023-05-10T00:02:35;17.30;77.90
68922;DHT22;55959;51.244;5.724;2023-05-10T00:05:01;17.30;77.90
68922;DHT22;55959;51.244;5.724;2023-05-10T00:07:27;17.40;78.00
68922;DHT22;55959;51.244;5.724;2023-05-10T00:09:52;17.30;78.00
68922;DHT22;55959;51.244;5.724;2023-05-10T00:12:18;17.30;78.10
68922;DHT22;55959;51.244;5.724;2023-05-10T00:14:44;17.30;78.10
68922;DHT22;55959;51.244;5.724;2023-05-10T00:17:10;17.40;78.10
68922;DHT22;55959;51.244;5.724;2023-05-10T00:19:36;17.40;78.10
68922;DHT22;55959;51.244;5.724;2023-05-10T00:22:02;17.30;78.00
68922;DHT22;55959;51.244;5.724;2023-05-10T00:24:28;17.30;78.00
68922;DHT22;55959;51.244;5.724;2023-05-10T00:26:54;17.30;78.10
68922;DHT22;55959;51.244;5.724;2023-05-10T00:29:19;17.30;78.10
68922;DHT22;55959;51.244;5.724;2023-05-10T00:31:45;17.30;78.20
68922;DHT22;55959;51.244;5.724;2023-05-10T00:34:11;17.30;78.30
68922;DHT22;55959;51.244;5.724;2023-05-10T00:36:36;17.30;78.30
68922;DHT22;55959;51.244;5.724;2023-05-10T00:39:02;17.30;78.20
68922;DHT22;55959;51.244;5.724;2023-05-10T00:41:29;17.30;78.10
68922;DHT22;55959;51.244;5.724;2023-05-10T00:43:58;17.30;78.10
68922;DHT22;55959;51.244;5.724;2023-05-10T00:46:24;17.30;78.30
68922;DHT22;55959;51.244;5.724;2023-05-10T00:48:50;17.20;78.30
68922;DHT22;55959;51.244;5.724;2023-05-10T00:51:16;17.20;78.50
68922;DHT22;55959;51.244;5.724;2023-05-10T00:53:42;17.20;78.50
68922;DHT22;55959;51.244;5.724;2023-05-10T00:56:09;17.20;78.80
68922;DHT22;55959;51.244;5.724;2023-05-10T00:58:34;17.20;78.90
68922;DHT22;55959;51.244;5.724;2023-05-10T01:01:01;17.20;78.90
68922;DHT22;55959;51.244;5.724;2023-05-10T01:03:27;17.10;78.90
68922;DHT22;55959;51.244;5.724;2023-05-10T01:05:53;17.10;78.90
68922;DHT22;55959;51.244;5.724;2023-05-10T01:08:19;17.10;79.00
68922;DHT22;55959;51.244;5.724;2023-05-10T01:10:45;17.10;79.10
68922;DHT22;55959;51.244;5.724;2023-05-10T01:13:23;17.10;79.10
68922;DHT22;55959;51.244;5.724;2023-05-10T01:15:57;17.10;79.10
68922;DHT22;55959;51.244;5.724;2023-05-10T01:18:23;17.10;79.20
68922;DHT22;55959;51.244;5.724;2023-05-10T01:21:23;17.10;79.20
68922;DHT22;55959;51.244;5.724;2023-05-10T01:27:14;17.10;79.30
68922;DHT22;55959;51.244;5.724;2023-05-10T01:33:11;17.00;80.30
68922;DHT22;55959;51.244;5.724;2023-05-10T01:35:54;17.00;79.50
68922;DHT22;55959;51.244;5.724;2023-05-10T01:38:33;17.00;79.70
68922;DHT22;55959;51.244;5.724;2023-05-10T01:41:40;17.00;79.70
68922;DHT22;55959;51.244;5.724;2023-05-10T01:44:16;17.00;79.80
68922;DHT22;55959;51.244;5.724;2023-05-10T01:46:50;17.00;79.70
68922;DHT22;55959;51.244;5.724;2023-05-10T01:49:24;17.00;79.70
68922;DHT22;55959;51.244;5.724;2023-05-10T01:51:53;17.00;79.90
68922;DHT22;55959;51.244;5.724;2023-05-10T01:54:21;17.00;79.80
68922;DHT22;55959;51.244;5.724;2023-05-10T01:56:52;16.90;79.70
68922;DHT22;55959;51.244;5.724;2023-05-10T01:59:24;17.00;79.70
68922;DHT22;55959;51.244;5.724;2023-05-10T02:01:54;17.00;79.60
68922;DHT22;55959;51.244;5.724;2023-05-10T02:04:23;16.90;79.50
68922;DHT22;55959;51.244;5.724;2023-05-10T02:06:51;16.90;79.50
68922;DHT22;55959;51.244;5.724;2023-05-10T02:09:20;17.00;79.60
68922;DHT22;55959;51.244;5.724;2023-05-10T02:11:48;17.00;79.50
68922;DHT22;55959;51.244;5.724;2023-05-10T02:14:15;17.00;79.50
68922;DHT22;55959;51.244;5.724;2023-05-10T02:16:43;17.00;79.50
68922;DHT22;55959;51.244;5.724;2023-05-10T02:19:11;17.00;79.50
68922;DHT22;55959;51.244;5.724;2023-05-10T02:21:40;17.00;79.30
68922;DHT22;55959;51.244;5.724;2023-05-10T02:24:07;17.00;79.10
68922;DHT22;55959;51.244;5.724;2023-05-10T02:26:35;16.90;79.10
68922;DHT22;55959;51.244;5.724;2023-05-10T02:29:02;16.90;79.00
68922;DHT22;55959;51.244;5.724;2023-05-10T02:31:31;16.90;79.10
68922;DHT22;55959;51.244;5.724;2023-05-10T02:33:58;16.90;79.00
68922;DHT22;55959;51.244;5.724;2023-05-10T02:36:26;16.90;79.10
68922;DHT22;55959;51.244;5.724;2023-05-10T02:38:55;16.80;79.00
68922;DHT22;55959;51.244;5.724;2023-05-10T02:41:22;16.80;79.10
68922;DHT22;55959;51.244;5.724;2023-05-10T02:43:50;16.80;79.10
68922;DHT22;55959;51.244;5.724;2023-05-10T02:46:19;16.80;79.10
68922;DHT22;55959;51.244;5.724;2023-05-10T02:48:44;16.80;79.20
68922;DHT22;55959;51.244;5.724;2023-05-10T02:51:12;16.80;79.10
68922;DHT22;55959;51.244;5.724;2023-05-10T02:53:41;16.80;79.10
68922;DHT22;55959;51.244;5.724;2023-05-10T02:56:19;16.80;79.10
68922;DHT22;55959;51.244;5.724;2023-05-10T02:58:50;16.80;79.10
68922;DHT22;55959;51.244;5.724;2023-05-10T03:01:17;16.80;79.10
68922;DHT22;55959;51.244;5.724;2023-05-10T03:03:42;16.80;78.90
68922;DHT22;55959;51.244;5.724;2023-05-10T03:06:08;16.80;78.90
68922;DHT22;55959;51.244;5.724;2023-05-10T03:08:34;16.80;78.90
68922;DHT22;55959;51.244;5.724;2023-05-10T03:17:06;16.70;78.50
68922;DHT22;55959;51.244;5.724;2023-05-10T03:19:47;16.70;78.70
68922;DHT22;55959;51.244;5.724;2023-05-10T03:22:29;16.70;78.70
68922;DHT22;55959;51.244;5.724;2023-05-10T03:24:57;16.70;78.90
68922;DHT22;55959;51.244;5.724;2023-05-10T03:27:25;16.70;78.90
68922;DHT22;55959;51.244;5.724;2023-05-10T03:29:53;16.70;79.00
68922;DHT22;55959;51.244;5.724;2023-05-10T03:32:20;16.70;78.90
68922;DHT22;55959;51.244;5.724;2023-05-10T03:34:46;16.70;78.90
68922;DHT22;55959;51.244;5.724;2023-05-10T03:37:11;16.70;78.90
68922;DHT22;55959;51.244;5.724;2023-05-10T03:39:37;16.70;79.00
68922;DHT22;55959;51.244;5.724;2023-05-10T03:42:03;16.70;79.00
68922;DHT22;55959;51.244;5.724;2023-05-10T03:44:29;16.70;79.00
68922;DHT22;55959;51.244;5.724;2023-05-10T03:46:54;16.70;79.00
68922;DHT22;55959;51.244;5.724;2023-05-10T03:49:22;16.70;79.10
68922;DHT22;55959;51.244;5.724;2023-05-10T03:51:48;16.70;78.90
68922;DHT22;55959;51.244;5.724;2023-05-10T03:54:13;16.70;79.00
68922;DHT22;55959;51.244;5.724;2023-05-10T03:56:40;16.70;79.00
68922;DHT22;55959;51.244;5.724;2023-05-10T03:59:05;16.70;79.00
68922;DHT22;55959;51.244;5.724;2023-05-10T04:01:33;16.70;79.00
68922;DHT22;55959;51.244;5.724;2023-05-10T04:03:59;16.70;79.00
68922;DHT22;55959;51.244;5.724;2023-05-10T04:06:25;16.70;79.00
68922;DHT22;55959;51.244;5.724;2023-05-10T04:08:51;16.70;78.90
68922;DHT22;55959;51.244;5.724;2023-05-10T04:11:17;16.70;79.00
68922;DHT22;55959;51.244;5.724;2023-05-10T04:13:42;16.70;78.90
68922;DHT22;55959;51.244;5.724;2023-05-10T04:16:08;16.70;78.90
68922;DHT22;55959;51.244;5.724;2023-05-10T04:18:34;16.70;79.70
68922;DHT22;55959;51.244;5.724;2023-05-10T04:21:00;16.70;78.90
68922;DHT22;55959;51.244;5.724;2023-05-10T04:23:27;16.70;78.80
68922;DHT22;55959;51.244;5.724;2023-05-10T04:25:59;16.60;78.70
68922;DHT22;55959;51.244;5.724;2023-05-10T04:28:25;16.60;78.90
68922;DHT22;55959;51.244;5.724;2023-05-10T04:30:52;16.60;78.90
68922;DHT22;55959;51.244;5.724;2023-05-10T04:33:18;16.60;79.10
68922;DHT22;55959;51.244;5.724;2023-05-10T04:35:43;16.60;79.20
68922;DHT22;55959;51.244;5.724;2023-05-10T04:38:10;16.70;79.30
68922;DHT22;55959;51.244;5.724;2023-05-10T04:40:36;16.60;79.10
68922;DHT22;55959;51.244;5.724;2023-05-10T04:43:02;16.60;79.10
68922;DHT22;55959;51.244;5.724;2023-05-10T04:45:27;16.60;79.10
68922;DHT22;55959;51.244;5.724;2023-05-10T04:47:53;16.60;79.20
68922;DHT22;55959;51.244;5.724;2023-05-10T04:50:19;16.60;79.30
68922;DHT22;55959;51.244;5.724;2023-05-10T04:52:44;16.60;79.20
68922;DHT22;55959;51.244;5.724;2023-05-10T04:55:10;16.60;79.20
68922;DHT22;55959;51.244;5.724;2023-05-10T04:57:36;16.70;79.20
68922;DHT22;55959;51.244;5.724;2023-05-10T05:00:03;16.70;79.10
68922;DHT22;55959;51.244;5.724;2023-05-10T05:02:29;16.70;79.10
68922;DHT22;55959;51.244;5.724;2023-05-10T05:04:56;16.70;79.00
68922;DHT22;55959;51.244;5.724;2023-05-10T05:07:23;16.70;79.00
68922;DHT22;55959;51.244;5.724;2023-05-10T05:09:48;16.70;78.90
68922;DHT22;55959;51.244;5.724;2023-05-10T05:12:14;16.70;78.90
68922;DHT22;55959;51.244;5.724;2023-05-10T05:14:40;16.70;78.90
68922;DHT22;55959;51.244;5.724;2023-05-10T05:17:06;16.70;78.90
68922;DHT22;55959;51.244;5.724;2023-05-10T05:19:33;16.70;78.90
68922;DHT22;55959;51.244;5.724;2023-05-10T05:21:59;16.70;78.90
68922;DHT22;55959;51.244;5.724;2023-05-10T05:24:25;16.70;78.70
68922;DHT22;55959;51.244;5.724;2023-05-10T05:26:51;16.70;78.80
68922;DHT22;55959;51.244;5.724;2023-05-10T05:29:16;16.70;78.70
68922;DHT22;55959;51.244;5.724;2023-05-10T05:31:42;16.60;78.90
68922;DHT22;55959;51.244;5.724;2023-05-10T05:34:08;16.70;79.10
68922;DHT22;55959;51.244;5.724;2023-05-10T05:36:36;16.70;79.10
68922;DHT22;55959;51.244;5.724;2023-05-10T05:39:06;16.70;79.10
68922;DHT22;55959;51.244;5.724;2023-05-10T05:41:31;16.70;78.90
68922;DHT22;55959;51.244;5.724;2023-05-10T05:43:57;16.70;78.60
68922;DHT22;55959;51.244;5.724;2023-05-10T05:46:23;16.70;78.50
68922;DHT22;55959;51.244;5.724;2023-05-10T05:48:50;16.60;78.30
68922;DHT22;55959;51.244;5.724;2023-05-10T05:51:15;16.60;78.10
68922;DHT22;55959;51.244;5.724;2023-05-10T05:53:41;16.60;78.10
68922;DHT22;55959;51.244;5.724;2023-05-10T05:56:07;16.70;78.30
68922;DHT22;55959;51.244;5.724;2023-05-10T05:58:33;16.60;78.10
68922;DHT22;55959;51.244;5.724;2023-05-10T06:00:59;16.70;78.10
68922;DHT22;55959;51.244;5.724;2023-05-10T06:03:24;16.60;77.90
68922;DHT22;55959;51.244;5.724;2023-05-10T06:05:50;16.60;77.80
68922;DHT22;55959;51.244;5.724;2023-05-10T06:08:16;16.70;78.00
68922;DHT22;55959;51.244;5.724;2023-05-10T06:10:42;16.60;78.00
68922;DHT22;55959;51.244;5.724;2023-05-10T06:13:07;16.70;78.10
68922;DHT22;55959;51.244;5.724;2023-05-10T06:15:33;16.70;78.10
68922;DHT22;55959;51.244;5.724;2023-05-10T06:17:59;16.70;77.90
68922;DHT22;55959;51.244;5.724;2023-05-10T06:20:25;16.70;77.90
68922;DHT22;55959;51.244;5.724;2023-05-10T06:22:51;16.70;77.80
68922;DHT22;55959;51.244;5.724;2023-05-10T06:25:17;16.70;77.70
68922;DHT22;55959;51.244;5.724;2023-05-10T06:27:44;16.70;77.70
68922;DHT22;55959;51.244;5.724;2023-05-10T06:30:10;16.70;77.50
68922;DHT22;55959;51.244;5.724;2023-05-10T06:32:36;16.70;77.50
68922;DHT22;55959;51.244;5.724;2023-05-10T06:35:03;16.80;77.70
68922;DHT22;55959;51.244;5.724;2023-05-10T06:37:28;16.80;77.60
68922;DHT22;55959;51.244;5.724;2023-05-10T06:39:54;16.80;77.40
68922;DHT22;55959;51.244;5.724;2023-05-10T06:42:20;16.80;77.30
68922;DHT22;55959;51.244;5.724;2023-05-10T06:44:46;16.80;77.10
68922;DHT22;55959;51.244;5.724;2023-05-10T06:47:11;16.80;77.00
68922;DHT22;55959;51.244;5.724;2023-05-10T06:49:39;16.80;77.10
68922;DHT22;55959;51.244;5.724;2023-05-10T06:52:05;16.80;77.10
68922;DHT22;55959;51.244;5.724;2023-05-10T06:54:31;16.90;77.10
68922;DHT22;55959;51.244;5.724;2023-05-10T06:56:56;16.90;77.20
68922;DHT22;55959;51.244;5.724;2023-05-10T06:59:22;16.90;76.80
68922;DHT22;55959;51.244;5.724;2023-05-10T07:01:48;16.90;76.70
68922;DHT22;55959;51.244;5.724;2023-05-10T07:04:13;16.90;76.50
68922;DHT22;55959;51.244;5.724;2023-05-10T07:06:39;16.90;76.50
68922;DHT22;55959;51.244;5.724;2023-05-10T07:09:05;16.90;76.30
68922;DHT22;55959;51.244;5.724;2023-05-10T07:11:31;16.90;76.10
68922;DHT22;55959;51.244;5.724;2023-05-10T07:13:56;16.90;76.40
68922;DHT22;55959;51.244;5.724;2023-05-10T07:16:22;17.00;76.90
68922;DHT22;55959;51.244;5.724;2023-05-10T07:18:48;17.00;77.20
68922;DHT22;55959;51.244;5.724;2023-05-10T07:21:15;17.00;77.10
68922;DHT22;55959;51.244;5.724;2023-05-10T07:23:41;17.10;77.10
68922;DHT22;55959;51.244;5.724;2023-05-10T07:26:07;17.10;77.10
68922;DHT22;55959;51.244;5.724;2023-05-10T07:28:32;17.20;76.90
68922;DHT22;55959;51.244;5.724;2023-05-10T07:30:58;17.20;76.90
68922;DHT22;55959;51.244;5.724;2023-05-10T07:33:24;17.30;76.80
68922;DHT22;55959;51.244;5.724;2023-05-10T07:35:50;17.30;76.20
68922;DHT22;55959;51.244;5.724;2023-05-10T07:38:15;17.30;75.90
68922;DHT22;55959;51.244;5.724;2023-05-10T07:40:42;17.30;75.30
68922;DHT22;55959;51.244;5.724;2023-05-10T07:43:08;17.30;75.40
68922;DHT22;55959;51.244;5.724;2023-05-10T07:45:34;17.30;75.30
68922;DHT22;55959;51.244;5.724;2023-05-10T07:47:59;17.40;75.10
68922;DHT22;55959;51.244;5.724;2023-05-10T07:50:25;17.30;75.00
68922;DHT22;55959;51.244;5.724;2023-05-10T07:52:51;17.30;74.90
68922;DHT22;55959;51.244;5.724;2023-05-10T07:55:18;17.30;74.80
68922;DHT22;55959;51.244;5.724;2023-05-10T07:57:44;17.30;74.60
68922;DHT22;55959;51.244;5.724;2023-05-10T08:00:17;17.30;74.80
68922;DHT22;55959;51.244;5.724;2023-05-10T08:02:44;17.30;75.00
68922;DHT22;55959;51.244;5.724;2023-05-10T08:05:10;17.30;74.90
68922;DHT22;55959;51.244;5.724;2023-05-10T08:07:36;17.30;74.70
68922;DHT22;55959;51.244;5.724;2023-05-10T08:10:03;17.30;74.90
68922;DHT22;55959;51.244;5.724;2023-05-10T08:12:29;17.30;75.00
68922;DHT22;55959;51.244;5.724;2023-05-10T08:14:55;17.30;74.90
68922;DHT22;55959;51.244;5.724;2023-05-10T08:17:21;17.30;74.80
68922;DHT22;55959;51.244;5.724;2023-05-10T08:19:47;17.30;74.90
68922;DHT22;55959;51.244;5.724;2023-05-10T08:22:13;17.30;74.80
68922;DHT22;55959;51.244;5.724;2023-05-10T08:24:38;17.30;74.60
68922;DHT22;55959;51.244;5.724;2023-05-10T08:27:05;17.30;74.80
68922;DHT22;55959;51.244;5.724;2023-05-10T08:29:31;17.30;74.90
68922;DHT22;55959;51.244;5.724;2023-05-10T08:31:57;17.30;74.50
68922;DHT22;55959;51.244;5.724;2023-05-10T08:34:22;17.30;75.20
68922;DHT22;55959;51.244;5.724;2023-05-10T08:36:49;17.30;74.20
68922;DHT22;55959;51.244;5.724;2023-05-10T08:39:16;17.30;74.10
68922;DHT22;55959;51.244;5.724;2023-05-10T08:41:44;17.20;74.30
68922;DHT22;55959;51.244;5.724;2023-05-10T08:44:10;17.20;74.10
68922;DHT22;55959;51.244;5.724;2023-05-10T08:46:37;17.20;73.70
68922;DHT22;55959;51.244;5.724;2023-05-10T08:49:08;17.20;74.10
68922;DHT22;55959;51.244;5.724;2023-05-10T08:51:36;17.20;74.50
68922;DHT22;55959;51.244;5.724;2023-05-10T08:54:05;17.20;74.30
68922;DHT22;55959;51.244;5.724;2023-05-10T08:56:31;17.20;74.30
68922;DHT22;55959;51.244;5.724;2023-05-10T08:58:57;17.10;74.40
68922;DHT22;55959;51.244;5.724;2023-05-10T09:01:24;17.10;74.70
68922;DHT22;55959;51.244;5.724;2023-05-10T09:03:50;17.20;74.90
68922;DHT22;55959;51.244;5.724;2023-05-10T09:06:17;17.20;75.10
68922;DHT22;55959;51.244;5.724;2023-05-10T09:08:43;17.20;74.70
68922;DHT22;55959;51.244;5.724;2023-05-10T09:11:11;17.20;74.40
68922;DHT22;55959;51.244;5.724;2023-05-10T09:13:37;17.20;74.30
68922;DHT22;55959;51.244;5.724;2023-05-10T09:16:03;17.20;74.50
68922;DHT22;55959;51.244;5.724;2023-05-10T09:18:29;17.20;74.40
68922;DHT22;55959;51.244;5.724;2023-05-10T09:20:56;17.20;74.30
68922;DHT22;55959;51.244;5.724;2023-05-10T09:23:22;17.20;74.70
68922;DHT22;55959;51.244;5.724;2023-05-10T09:26:02;17.20;75.00
68922;DHT22;55959;51.244;5.724;2023-05-10T09:28:55;17.20;74.70
68922;DHT22;55959;51.244;5.724;2023-05-10T09:31:22;17.20;75.20
68922;DHT22;55959;51.244;5.724;2023-05-10T09:33:50;17.20;75.30
68922;DHT22;55959;51.244;5.724;2023-05-10T09:36:17;17.30;75.30
68922;DHT22;55959;51.244;5.724;2023-05-10T09:38:50;17.30;74.70
68922;DHT22;55959;51.244;5.724;2023-05-10T09:41:21;17.30;74.90
68922;DHT22;55959;51.244;5.724;2023-05-10T09:43:48;17.30;74.90
68922;DHT22;55959;51.244;5.724;2023-05-10T09:46:15;17.30;75.30
68922;DHT22;55959;51.244;5.724;2023-05-10T09:48:45;17.40;75.40
68922;DHT22;55959;51.244;5.724;2023-05-10T09:51:25;17.40;75.30
68922;DHT22;55959;51.244;5.724;2023-05-10T09:54:12;17.50;74.90
68922;DHT22;55959;51.244;5.724;2023-05-10T09:56:39;17.50;74.50
68922;DHT22;55959;51.244;5.724;2023-05-10T09:59:10;17.50;74.60
68922;DHT22;55959;51.244;5.724;2023-05-10T10:01:37;17.60;74.90
68922;DHT22;55959;51.244;5.724;2023-05-10T10:04:05;17.60;74.30
68922;DHT22;55959;51.244;5.724;2023-05-10T10:06:36;17.70;74.50
68922;DHT22;55959;51.244;5.724;2023-05-10T10:09:03;17.70;73.90
68922;DHT22;55959;51.244;5.724;2023-05-10T10:11:29;17.70;73.10
68922;DHT22;55959;51.244;5.724;2023-05-10T10:13:55;17.80;73.30
68922;DHT22;55959;51.244;5.724;2023-05-10T10:16:21;17.80;73.30
68922;DHT22;55959;51.244;5.724;2023-05-10T10:18:47;17.80;72.70
68922;DHT22;55959;51.244;5.724;2023-05-10T10:21:14;17.80;72.30
68922;DHT22;55959;51.244;5.724;2023-05-10T10:23:40;17.80;72.10
68922;DHT22;55959;51.244;5.724;2023-05-10T10:26:06;17.80;71.60
68922;DHT22;55959;51.244;5.724;2023-05-10T10:31:26;17.70;72.20
68922;DHT22;55959;51.244;5.724;2023-05-10T10:34:11;17.70;72.70
68922;DHT22;55959;51.244;5.724;2023-05-10T10:36:47;17.70;72.70
68922;DHT22;55959;51.244;5.724;2023-05-10T10:39:14;17.70;72.60
68922;DHT22;55959;51.244;5.724;2023-05-10T10:41:56;17.80;72.30
68922;DHT22;55959;51.244;5.724;2023-05-10T10:52:27;17.90;72.90
68922;DHT22;55959;51.244;5.724;2023-05-10T10:57:24;18.00;72.90
68922;DHT22;55959;51.244;5.724;2023-05-10T11:00:00;18.00;72.20
68922;DHT22;55959;51.244;5.724;2023-05-10T11:02:53;18.00;72.50
68922;DHT22;55959;51.244;5.724;2023-05-10T11:08:07;18.10;72.90
68922;DHT22;55959;51.244;5.724;2023-05-10T11:10:36;18.20;72.30
68922;DHT22;55959;51.244;5.724;2023-05-10T11:13:07;18.20;71.80
68922;DHT22;55959;51.244;5.724;2023-05-10T11:15:35;18.20;72.40
68922;DHT22;55959;51.244;5.724;2023-05-10T11:18:19;18.20;73.00
68922;DHT22;55959;51.244;5.724;2023-05-10T11:20:56;18.20;73.70
68922;DHT22;55959;51.244;5.724;2023-05-10T11:23:47;18.20;73.30
68922;DHT22;55959;51.244;5.724;2023-05-10T11:26:13;18.30;73.80
68922;DHT22;55959;51.244;5.724;2023-05-10T11:28:47;18.30;74.10
68922;DHT22;55959;51.244;5.724;2023-05-10T11:31:18;18.30;73.50
68922;DHT22;55959;51.244;5.724;2023-05-10T11:33:50;18.40;73.30
68922;DHT22;55959;51.244;5.724;2023-05-10T11:36:18;18.30;72.70
68922;DHT22;55959;51.244;5.724;2023-05-10T11:38:46;18.30;72.50
68922;DHT22;55959;51.244;5.724;2023-05-10T11:41:12;18.30;72.50
68922;DHT22;55959;51.244;5.724;2023-05-10T11:43:42;18.40;72.80
68922;DHT22;55959;51.244;5.724;2023-05-10T11:46:10;18.40;72.50
68922;DHT22;55959;51.244;5.724;2023-05-10T11:48:42;18.40;72.60
68922;DHT22;55959;51.244;5.724;2023-05-10T11:51:09;18.40;73.30
68922;DHT22;55959;51.244;5.724;2023-05-10T11:53:35;18.40;73.10
68922;DHT22;55959;51.244;5.724;2023-05-10T11:56:09;18.50;73.30
68922;DHT22;55959;51.244;5.724;2023-05-10T11:58:37;18.50;71.70
68922;DHT22;55959;51.244;5.724;2023-05-10T12:01:05;18.50;71.30
68922;DHT22;55959;51.244;5.724;2023-05-10T12:03:33;18.50;71.30
68922;DHT22;55959;51.244;5.724;2023-05-10T12:05:59;18.60;72.30
68922;DHT22;55959;51.244;5.724;2023-05-10T12:08:29;18.60;71.70
68922;DHT22;55959;51.244;5.724;2023-05-10T12:11:07;18.60;71.20
68922;DHT22;55959;51.244;5.724;2023-05-10T12:13:41;18.70;71.70
68922;DHT22;55959;51.244;5.724;2023-05-10T12:16:19;18.70;71.30
68922;DHT22;55959;51.244;5.724;2023-05-10T12:18:48;18.80;70.80
68922;DHT22;55959;51.244;5.724;2023-05-10T12:21:16;18.80;71.00
68922;DHT22;55959;51.244;5.724;2023-05-10T12:23:42;18.90;70.20
68922;DHT22;55959;51.244;5.724;2023-05-10T12:26:12;19.00;70.20
68922;DHT22;55959;51.244;5.724;2023-05-10T12:28:38;19.00;68.90
68922;DHT22;55959;51.244;5.724;2023-05-10T12:31:05;19.00;68.10
68922;DHT22;55959;51.244;5.724;2023-05-10T12:33:44;19.10;68.00
68922;DHT22;55959;51.244;5.724;2023-05-10T12:36:13;19.10;67.90
68922;DHT22;55959;51.244;5.724;2023-05-10T12:38:44;19.10;68.60
68922;DHT22;55959;51.244;5.724;2023-05-10T12:41:17;19.20;68.80
68922;DHT22;55959;51.244;5.724;2023-05-10T12:43:44;19.20;67.60
68922;DHT22;55959;51.244;5.724;2023-05-10T12:46:17;19.30;66.90
68922;DHT22;55959;51.244;5.724;2023-05-10T12:48:44;19.30;66.40
68922;DHT22;55959;51.244;5.724;2023-05-10T12:51:10;19.30;66.70
68922;DHT22;55959;51.244;5.724;2023-05-10T12:53:42;19.40;66.90
68922;DHT22;55959;51.244;5.724;2023-05-10T12:56:10;19.40;67.10
68922;DHT22;55959;51.244;5.724;2023-05-10T12:58:36;19.50;67.20
68922;DHT22;55959;51.244;5.724;2023-05-10T13:01:02;19.50;65.50
68922;DHT22;55959;51.244;5.724;2023-05-10T13:03:28;19.50;65.00
68922;DHT22;55959;51.244;5.724;2023-05-10T13:05:54;19.50;64.70
68922;DHT22;55959;51.244;5.724;2023-05-10T13:08:19;19.50;64.80
68922;DHT22;55959;51.244;5.724;2023-05-10T13:10:45;19.50;64.20
68922;DHT22;55959;51.244;5.724;2023-05-10T13:13:11;19.50;64.50
68922;DHT22;55959;51.244;5.724;2023-05-10T13:15:37;19.50;64.60
68922;DHT22;55959;51.244;5.724;2023-05-10T13:18:02;19.50;64.60
68922;DHT22;55959;51.244;5.724;2023-05-10T13:20:28;19.50;64.60
68922;DHT22;55959;51.244;5.724;2023-05-10T13:22:54;19.50;64.50
68922;DHT22;55959;51.244;5.724;2023-05-10T13:25:19;19.50;64.20
68922;DHT22;55959;51.244;5.724;2023-05-10T13:27:45;19.40;64.10
68922;DHT22;55959;51.244;5.724;2023-05-10T13:30:11;19.40;64.40
68922;DHT22;55959;51.244;5.724;2023-05-10T13:32:37;19.40;64.70
68922;DHT22;55959;51.244;5.724;2023-05-10T13:35:04;19.40;64.80
68922;DHT22;55959;51.244;5.724;2023-05-10T13:37:31;19.40;64.80
68922;DHT22;55959;51.244;5.724;2023-05-10T13:39:57;19.40;65.20
68922;DHT22;55959;51.244;5.724;2023-05-10T13:42:23;19.40;65.10
68922;DHT22;55959;51.244;5.724;2023-05-10T13:44:50;19.40;65.10
68922;DHT22;55959;51.244;5.724;2023-05-10T13:47:16;19.40;65.60
68922;DHT22;55959;51.244;5.724;2023-05-10T13:49:41;19.50;65.60
68922;DHT22;55959;51.244;5.724;2023-05-10T13:52:07;19.50;65.70
68922;DHT22;55959;51.244;5.724;2023-05-10T13:54:35;19.50;65.10
68922;DHT22;55959;51.244;5.724;2023-05-10T13:57:02;19.50;64.20
68922;DHT22;55959;51.244;5.724;2023-05-10T13:59:28;19.50;64.40
68922;DHT22;55959;51.244;5.724;2023-05-10T14:01:54;19.50;65.00
68922;DHT22;55959;51.244;5.724;2023-05-10T14:04:20;19.50;65.40
68922;DHT22;55959;51.244;5.724;2023-05-10T14:06:45;19.50;65.70
68922;DHT22;55959;51.244;5.724;2023-05-10T14:09:11;19.50;65.20
68922;DHT22;55959;51.244;5.724;2023-05-10T14:11:38;19.50;64.80
68922;DHT22;55959;51.244;5.724;2023-05-10T14:14:07;19.60;64.30
68922;DHT22;55959;51.244;5.724;2023-05-10T14:16:32;19.60;64.60
68922;DHT22;55959;51.244;5.724;2023-05-10T14:18:58;19.60;64.80
68922;DHT22;55959;51.244;5.724;2023-05-10T14:21:24;19.60;64.80
68922;DHT22;55959;51.244;5.724;2023-05-10T14:23:50;19.60;64.90
68922;DHT22;55959;51.244;5.724;2023-05-10T14:26:15;19.60;64.90
68922;DHT22;55959;51.244;5.724;2023-05-10T14:28:41;19.60;64.20
68922;DHT22;55959;51.244;5.724;2023-05-10T14:31:07;19.70;64.10
68922;DHT22;55959;51.244;5.724;2023-05-10T14:33:34;19.70;64.50
68922;DHT22;55959;51.244;5.724;2023-05-10T14:35:59;19.70;64.10
68922;DHT22;55959;51.244;5.724;2023-05-10T14:38:25;19.70;64.00
68922;DHT22;55959;51.244;5.724;2023-05-10T14:40:51;19.70;64.20
68922;DHT22;55959;51.244;5.724;2023-05-10T14:43:18;19.70;64.20
68922;DHT22;55959;51.244;5.724;2023-05-10T14:45:44;19.70;64.50
68922;DHT22;55959;51.244;5.724;2023-05-10T14:48:10;19.80;65.00
68922;DHT22;55959;51.244;5.724;2023-05-10T14:50:40;19.90;65.20
68922;DHT22;55959;51.244;5.724;2023-05-10T14:53:06;19.90;64.90
68922;DHT22;55959;51.244;5.724;2023-05-10T14:55:32;19.90;64.00
68922;DHT22;55959;51.244;5.724;2023-05-10T14:57:58;20.00;64.00
68922;DHT22;55959;51.244;5.724;2023-05-10T15:00:24;20.00;64.00
68922;DHT22;55959;51.244;5.724;2023-05-10T15:02:49;20.10;62.70
68922;DHT22;55959;51.244;5.724;2023-05-10T15:05:15;20.10;63.40
68922;DHT22;55959;51.244;5.724;2023-05-10T15:07:41;20.20;63.90
68922;DHT22;55959;51.244;5.724;2023-05-10T15:10:09;20.20;64.40
68922;DHT22;55959;51.244;5.724;2023-05-10T15:12:35;20.30;65.30
68922;DHT22;55959;51.244;5.724;2023-05-10T15:15:01;20.40;64.10
68922;DHT22;55959;51.244;5.724;2023-05-10T15:17:29;20.40;63.80
68922;DHT22;55959;51.244;5.724;2023-05-10T15:19:55;20.40;63.80
68922;DHT22;55959;51.244;5.724;2023-05-10T15:22:21;20.50;63.60
68922;DHT22;55959;51.244;5.724;2023-05-10T15:24:47;20.50;63.40
68922;DHT22;55959;51.244;5.724;2023-05-10T15:27:13;20.50;63.10
68922;DHT22;55959;51.244;5.724;2023-05-10T15:29:39;20.50;63.10
68922;DHT22;55959;51.244;5.724;2023-05-10T15:32:05;20.50;63.20
68922;DHT22;55959;51.244;5.724;2023-05-10T15:34:30;20.50;63.40
68922;DHT22;55959;51.244;5.724;2023-05-10T15:36:56;20.50;63.30
68922;DHT22;55959;51.244;5.724;2023-05-10T15:39:22;20.50;63.20
68922;DHT22;55959;51.244;5.724;2023-05-10T15:41:48;20.50;64.20
68922;DHT22;55959;51.244;5.724;2023-05-10T15:44:14;20.50;63.30
68922;DHT22;55959;51.244;5.724;2023-05-10T15:46:39;20.60;63.40
68922;DHT22;55959;51.244;5.724;2023-05-10T15:49:05;20.50;63.40
68922;DHT22;55959;51.244;5.724;2023-05-10T15:51:32;20.50;62.80
68922;DHT22;55959;51.244;5.724;2023-05-10T15:54:00;20.50;62.20
68922;DHT22;55959;51.244;5.724;2023-05-10T15:56:27;20.50;62.00
68922;DHT22;55959;51.244;5.724;2023-05-10T15:58:53;20.50;62.30
68922;DHT22;55959;51.244;5.724;2023-05-10T16:01:19;20.50;62.50